Pink Hill, North Carolina
Current Conditions -  °F | °C
As of 2:15 PM on Saturday 20 Dec 2014 (Local Time) from KDPL Reporting Station
Light Rain Light Rain  
Wind Chill: 39°   Ceiling: 6000
Heat Index: 39°   Visibility: 5mi
Dew Point: 38°   Wind: 0mph
Humidity: 95%   Direction: NA
Pressure: 30.26"   Gusts: NA
Location:  35.06°N, 77.75°W
Report Text: KDPL 201915Z AUTO 00000KT 5SM -RA SCT006 SCT044 OVC060 04/03 A3026 RMK AO2 P0001 T00400032
Loading
Personal Weather Stations






























Interactive Weather Map New forecast layout! Learn more

10-Day Weather Forecast

Advertisements
Track Severe Weather on mobile